Portada
METAR-TAF:

METAR-TAF

Aeroports :

Gdańsk, Polònia

latitud: 54-23N, longitud: 018-28E, altitud: 135 m

Observació

L'informe es va fer fa 17 minuts, a les 10:00 UTC
Vent 10 kt del Nord-Est, variant entre Nord/Nord-Est i Est
Temperatura 17°C
Humitat 48%
Pressió 1008 hPa
Visibilitat 10 km o més
sense núvols per sota de 1500 mi sense presència de cumulonimbus.

METAR: EPGD 031000Z 05010KT 020V090 CAVOK 17/06 Q1008

Hora: 12:17 (10:17 UTC)

Pronòstic

L'informe es va fer fa 4 hores i 47 minuts, a les 05:30 UTC
Pronòstic vàlid del 03 a les 06 UTC al 04 a les 06 UTC
Vent 3 kt amb direcció variable
Visibilitat 10 km o més
sense núvols per sota de 1500 mi sense presència de cumulonimbus.
Evolucionant progressivament
l' 03 a les 07 UTC al 03 a les 10 UTC
Vent 10 kt del Nord-Est
Evolucionant progressivament
l' 03 a les 18 UTC al 03 a les 21 UTC
Vent 2 kt amb direcció variable

TAF: EPGD 030530Z 0306/0406 VRB03KT CAVOK BECMG 0307/0310 04010KT BECMG 0318/0321 VRB02KT

Observacions i pronòstics meteorològics de més de 4000 aeroports (METAR i TAF).

Les estacions disponibles són els punts grocs i vermells al mapa.

Posi el ratolí al punt desitjat per veure el nom de l'estació.

Feu clic per veure les observacions i els pronòstics meteorològics.

Per canviar el mapa: feu clic els botons verds amb una creu de color negre per apropar; al botó verd amb un guió per allunyar la imatge; o en les fletxes verdes per a mapes adjacents.


METAR-TAF: